sensor_id;sensor_type;location;lat;lon;timestamp;P1;durP1;ratioP1;P2;durP2;ratioP2
2362;SDS011;1192;51.664;7.626;2022-07-19T00:01:51;1122.50;;;999.90;;
2362;SDS011;1192;51.664;7.626;2022-07-19T00:04:17;1125.22;;;999.90;;
2362;SDS011;1192;51.664;7.626;2022-07-19T00:06:44;1120.70;;;999.90;;
2362;SDS011;1192;51.664;7.626;2022-07-19T00:09:12;1119.90;;;999.90;;
2362;SDS011;1192;51.664;7.626;2022-07-19T00:11:39;1122.67;;;999.90;;
2362;SDS011;1192;51.664;7.626;2022-07-19T00:14:06;1126.77;;;999.90;;
2362;SDS011;1192;51.664;7.626;2022-07-19T00:16:32;1116.70;;;999.90;;
2362;SDS011;1192;51.664;7.626;2022-07-19T00:18:59;1122.43;;;999.90;;
2362;SDS011;1192;51.664;7.626;2022-07-19T00:21:26;1125.60;;;999.90;;
2362;SDS011;1192;51.664;7.626;2022-07-19T00:23:53;1126.40;;;999.90;;
2362;SDS011;1192;51.664;7.626;2022-07-19T00:26:21;1136.07;;;999.90;;
2362;SDS011;1192;51.664;7.626;2022-07-19T00:28:47;1109.43;;;999.90;;
2362;SDS011;1192;51.664;7.626;2022-07-19T00:31:14;1117.45;;;999.90;;
2362;SDS011;1192;51.664;7.626;2022-07-19T00:33:41;1103.32;;;999.90;;
2362;SDS011;1192;51.664;7.626;2022-07-19T00:36:09;1106.78;;;999.90;;
2362;SDS011;1192;51.664;7.626;2022-07-19T00:38:36;1099.43;;;999.05;;
2362;SDS011;1192;51.664;7.626;2022-07-19T00:41:03;1100.55;;;999.38;;
2362;SDS011;1192;51.664;7.626;2022-07-19T00:43:31;1103.10;;;999.88;;
2362;SDS011;1192;51.664;7.626;2022-07-19T00:45:58;1104.85;;;999.90;;
2362;SDS011;1192;51.664;7.626;2022-07-19T00:48:24;1109.93;;;999.90;;
2362;SDS011;1192;51.664;7.626;2022-07-19T00:50:52;1116.35;;;999.90;;
2362;SDS011;1192;51.664;7.626;2022-07-19T00:53:18;1114.50;;;999.90;;
2362;SDS011;1192;51.664;7.626;2022-07-19T00:55:46;1103.78;;;999.90;;
2362;SDS011;1192;51.664;7.626;2022-07-19T00:58:13;1101.53;;;999.70;;
2362;SDS011;1192;51.664;7.626;2022-07-19T01:00:44;1095.30;;;998.90;;
2362;SDS011;1192;51.664;7.626;2022-07-19T01:03:10;1082.28;;;991.60;;
2362;SDS011;1192;51.664;7.626;2022-07-19T01:05:39;1107.45;;;999.90;;
2362;SDS011;1192;51.664;7.626;2022-07-19T01:08:06;1107.82;;;999.90;;
2362;SDS011;1192;51.664;7.626;2022-07-19T01:10:33;1102.57;;;999.90;;
2362;SDS011;1192;51.664;7.626;2022-07-19T01:13:00;1102.15;;;999.90;;
2362;SDS011;1192;51.664;7.626;2022-07-19T01:15:27;1095.18;;;998.95;;
2362;SDS011;1192;51.664;7.626;2022-07-19T01:17:55;1098.35;;;999.08;;
2362;SDS011;1192;51.664;7.626;2022-07-19T01:20:23;1106.22;;;999.90;;
2362;SDS011;1192;51.664;7.626;2022-07-19T01:22:51;1117.45;;;999.90;;
2362;SDS011;1192;51.664;7.626;2022-07-19T01:25:18;1099.65;;;999.42;;
2362;SDS011;1192;51.664;7.626;2022-07-19T01:27:45;1099.38;;;999.35;;
2362;SDS011;1192;51.664;7.626;2022-07-19T01:30:14;1088.40;;;996.30;;
2362;SDS011;1192;51.664;7.626;2022-07-19T01:32:42;1101.15;;;999.75;;
2362;SDS011;1192;51.664;7.626;2022-07-19T01:35:10;1084.60;;;993.65;;
2362;SDS011;1192;51.664;7.626;2022-07-19T01:37:37;1104.40;;;999.90;;
2362;SDS011;1192;51.664;7.626;2022-07-19T01:40:07;1082.65;;;991.60;;
2362;SDS011;1192;51.664;7.626;2022-07-19T01:42:35;1072.60;;;982.83;;
2362;SDS011;1192;51.664;7.626;2022-07-19T01:45:02;1084.68;;;992.90;;
2362;SDS011;1192;51.664;7.626;2022-07-19T01:47:30;1089.65;;;995.65;;
2362;SDS011;1192;51.664;7.626;2022-07-19T01:49:57;1092.63;;;997.40;;
2362;SDS011;1192;51.664;7.626;2022-07-19T01:52:24;1086.45;;;994.17;;
2362;SDS011;1192;51.664;7.626;2022-07-19T01:54:51;1091.38;;;996.75;;
2362;SDS011;1192;51.664;7.626;2022-07-19T01:57:19;1099.10;;;999.30;;
2362;SDS011;1192;51.664;7.626;2022-07-19T01:59:46;1092.72;;;997.47;;
2362;SDS011;1192;51.664;7.626;2022-07-19T02:02:12;1082.95;;;991.70;;
2362;SDS011;1192;51.664;7.626;2022-07-19T02:04:39;1091.40;;;997.00;;
2362;SDS011;1192;51.664;7.626;2022-07-19T02:07:06;1074.22;;;984.50;;
2362;SDS011;1192;51.664;7.626;2022-07-19T02:09:33;1090.45;;;996.65;;
2362;SDS011;1192;51.664;7.626;2022-07-19T02:11:59;1085.97;;;994.10;;
2362;SDS011;1192;51.664;7.626;2022-07-19T02:14:27;1085.03;;;993.38;;
2362;SDS011;1192;51.664;7.626;2022-07-19T02:16:54;1084.75;;;992.45;;
2362;SDS011;1192;51.664;7.626;2022-07-19T02:19:21;1092.63;;;997.58;;
2362;SDS011;1192;51.664;7.626;2022-07-19T02:21:48;1088.45;;;995.55;;
2362;SDS011;1192;51.664;7.626;2022-07-19T02:24:14;1073.45;;;983.42;;
2362;SDS011;1192;51.664;7.626;2022-07-19T02:26:41;1078.43;;;988.17;;
2362;SDS011;1192;51.664;7.626;2022-07-19T02:29:08;1083.97;;;992.65;;
2362;SDS011;1192;51.664;7.626;2022-07-19T02:31:36;1075.85;;;985.42;;
2362;SDS011;1192;51.664;7.626;2022-07-19T02:34:03;1079.55;;;988.88;;
2362;SDS011;1192;51.664;7.626;2022-07-19T02:36:30;1081.95;;;991.15;;
2362;SDS011;1192;51.664;7.626;2022-07-19T02:38:57;1077.28;;;987.03;;
2362;SDS011;1192;51.664;7.626;2022-07-19T02:41:24;1093.43;;;997.88;;
2362;SDS011;1192;51.664;7.626;2022-07-19T02:43:51;1078.95;;;988.60;;
2362;SDS011;1192;51.664;7.626;2022-07-19T02:46:17;1086.00;;;994.13;;
2362;SDS011;1192;51.664;7.626;2022-07-19T02:48:45;1065.03;;;975.20;;
2362;SDS011;1192;51.664;7.626;2022-07-19T02:51:12;1082.82;;;991.97;;
2362;SDS011;1192;51.664;7.626;2022-07-19T02:53:39;1065.15;;;975.53;;
2362;SDS011;1192;51.664;7.626;2022-07-19T02:56:06;1057.00;;;967.70;;
2362;SDS011;1192;51.664;7.626;2022-07-19T02:58:32;1064.65;;;974.97;;
2362;SDS011;1192;51.664;7.626;2022-07-19T03:00:59;1067.15;;;977.25;;
2362;SDS011;1192;51.664;7.626;2022-07-19T03:03:26;1071.88;;;982.00;;
2362;SDS011;1192;51.664;7.626;2022-07-19T03:06:14;1064.40;;;974.78;;
2362;SDS011;1192;51.664;7.626;2022-07-19T03:08:42;1073.43;;;983.45;;
2362;SDS011;1192;51.664;7.626;2022-07-19T03:11:09;1074.05;;;983.70;;
2362;SDS011;1192;51.664;7.626;2022-07-19T03:13:35;1071.43;;;981.40;;
2362;SDS011;1192;51.664;7.626;2022-07-19T03:16:02;1068.15;;;978.45;;
2362;SDS011;1192;51.664;7.626;2022-07-19T03:18:30;1073.10;;;983.13;;
2362;SDS011;1192;51.664;7.626;2022-07-19T03:20:56;1064.10;;;974.58;;
2362;SDS011;1192;51.664;7.626;2022-07-19T03:23:26;1068.00;;;978.00;;
2362;SDS011;1192;51.664;7.626;2022-07-19T03:25:54;1049.07;;;960.30;;
2362;SDS011;1192;51.664;7.626;2022-07-19T03:28:20;1067.30;;;977.58;;
2362;SDS011;1192;51.664;7.626;2022-07-19T03:30:47;1061.00;;;971.75;;
2362;SDS011;1192;51.664;7.626;2022-07-19T03:33:14;1055.60;;;966.40;;
2362;SDS011;1192;51.664;7.626;2022-07-19T03:35:41;1060.93;;;971.30;;
2362;SDS011;1192;51.664;7.626;2022-07-19T03:38:09;1050.97;;;961.97;;
2362;SDS011;1192;51.664;7.626;2022-07-19T03:40:37;1062.25;;;973.00;;
2362;SDS011;1192;51.664;7.626;2022-07-19T03:43:04;1040.40;;;951.95;;
2362;SDS011;1192;51.664;7.626;2022-07-19T03:45:31;1062.43;;;973.22;;
2362;SDS011;1192;51.664;7.626;2022-07-19T03:47:58;1047.22;;;958.40;;
2362;SDS011;1192;51.664;7.626;2022-07-19T03:50:25;1052.70;;;963.65;;
2362;SDS011;1192;51.664;7.626;2022-07-19T03:52:52;1052.28;;;963.42;;
2362;SDS011;1192;51.664;7.626;2022-07-19T03:55:19;1046.78;;;957.92;;
2362;SDS011;1192;51.664;7.626;2022-07-19T03:57:47;1045.13;;;956.28;;
2362;SDS011;1192;51.664;7.626;2022-07-19T04:00:13;1050.13;;;961.20;;
2362;SDS011;1192;51.664;7.626;2022-07-19T04:02:41;1046.32;;;957.60;;
2362;SDS011;1192;51.664;7.626;2022-07-19T04:05:08;1042.35;;;953.92;;
2362;SDS011;1192;51.664;7.626;2022-07-19T04:07:35;1039.38;;;950.90;;
2362;SDS011;1192;51.664;7.626;2022-07-19T04:10:02;1046.95;;;958.05;;
2362;SDS011;1192;51.664;7.626;2022-07-19T04:12:29;1032.72;;;944.55;;
2362;SDS011;1192;51.664;7.626;2022-07-19T04:14:57;1037.40;;;948.90;;
2362;SDS011;1192;51.664;7.626;2022-07-19T04:17:23;1041.65;;;953.33;;
2362;SDS011;1192;51.664;7.626;2022-07-19T04:19:50;1038.30;;;949.75;;
2362;SDS011;1192;51.664;7.626;2022-07-19T04:22:17;1035.60;;;947.15;;
2362;SDS011;1192;51.664;7.626;2022-07-19T04:24:44;1039.68;;;951.45;;
2362;SDS011;1192;51.664;7.626;2022-07-19T04:27:10;1029.75;;;941.50;;
2362;SDS011;1192;51.664;7.626;2022-07-19T04:29:37;1037.55;;;949.22;;
2362;SDS011;1192;51.664;7.626;2022-07-19T04:32:05;1050.22;;;961.40;;
2362;SDS011;1192;51.664;7.626;2022-07-19T04:34:32;1041.25;;;952.90;;
2362;SDS011;1192;51.664;7.626;2022-07-19T04:36:59;1029.25;;;941.42;;
2362;SDS011;1192;51.664;7.626;2022-07-19T04:39:26;1040.18;;;951.92;;
2362;SDS011;1192;51.664;7.626;2022-07-19T04:41:52;1036.85;;;948.63;;
2362;SDS011;1192;51.664;7.626;2022-07-19T04:44:19;1041.43;;;953.00;;
2362;SDS011;1192;51.664;7.626;2022-07-19T04:46:46;1047.35;;;958.53;;
2362;SDS011;1192;51.664;7.626;2022-07-19T04:49:14;1027.93;;;939.90;;
2362;SDS011;1192;51.664;7.626;2022-07-19T04:51:41;1034.03;;;945.58;;
2362;SDS011;1192;51.664;7.626;2022-07-19T04:54:07;1048.65;;;960.17;;
2362;SDS011;1192;51.664;7.626;2022-07-19T04:56:34;1035.40;;;947.05;;
2362;SDS011;1192;51.664;7.626;2022-07-19T04:59:01;1050.85;;;962.15;;
2362;SDS011;1192;51.664;7.626;2022-07-19T05:01:28;1027.20;;;939.38;;
2362;SDS011;1192;51.664;7.626;2022-07-19T05:03:55;1032.95;;;945.00;;
2362;SDS011;1192;51.664;7.626;2022-07-19T05:06:23;1038.35;;;950.22;;
2362;SDS011;1192;51.664;7.626;2022-07-19T05:08:50;1032.15;;;944.10;;
2362;SDS011;1192;51.664;7.626;2022-07-19T05:11:17;1032.35;;;944.53;;
2362;SDS011;1192;51.664;7.626;2022-07-19T05:13:44;1025.95;;;938.17;;
2362;SDS011;1192;51.664;7.626;2022-07-19T05:16:11;1017.10;;;929.65;;
2362;SDS011;1192;51.664;7.626;2022-07-19T05:18:38;1020.08;;;932.33;;
2362;SDS011;1192;51.664;7.626;2022-07-19T05:21:05;1029.97;;;941.85;;
2362;SDS011;1192;51.664;7.626;2022-07-19T05:23:33;1030.97;;;943.00;;
2362;SDS011;1192;51.664;7.626;2022-07-19T05:25:59;1036.38;;;948.25;;
2362;SDS011;1192;51.664;7.626;2022-07-19T05:28:26;1029.50;;;941.60;;
2362;SDS011;1192;51.664;7.626;2022-07-19T05:30:53;1030.20;;;942.50;;
2362;SDS011;1192;51.664;7.626;2022-07-19T05:33:19;1031.55;;;943.55;;
2362;SDS011;1192;51.664;7.626;2022-07-19T05:35:46;1022.80;;;935.25;;
2362;SDS011;1192;51.664;7.626;2022-07-19T05:38:13;1034.05;;;946.03;;
2362;SDS011;1192;51.664;7.626;2022-07-19T05:40:41;1012.75;;;925.40;;
2362;SDS011;1192;51.664;7.626;2022-07-19T05:43:07;1033.63;;;945.80;;
2362;SDS011;1192;51.664;7.626;2022-07-19T05:45:34;1023.60;;;935.67;;
2362;SDS011;1192;51.664;7.626;2022-07-19T05:48:01;1034.40;;;946.38;;
2362;SDS011;1192;51.664;7.626;2022-07-19T05:50:28;1043.93;;;955.58;;
2362;SDS011;1192;51.664;7.626;2022-07-19T05:52:54;1058.80;;;969.63;;
2362;SDS011;1192;51.664;7.626;2022-07-19T05:55:21;1066.88;;;977.67;;
2362;SDS011;1192;51.664;7.626;2022-07-19T05:57:49;1068.65;;;979.30;;
2362;SDS011;1192;51.664;7.626;2022-07-19T06:00:16;1062.45;;;973.25;;
2362;SDS011;1192;51.664;7.626;2022-07-19T06:02:43;1076.13;;;986.58;;
2362;SDS011;1192;51.664;7.626;2022-07-19T06:05:09;1077.82;;;987.78;;
2362;SDS011;1192;51.664;7.626;2022-07-19T06:07:36;1090.82;;;997.72;;
2362;SDS011;1192;51.664;7.626;2022-07-19T06:10:03;1091.43;;;996.83;;
2362;SDS011;1192;51.664;7.626;2022-07-19T06:12:31;1096.95;;;998.63;;
2362;SDS011;1192;51.664;7.626;2022-07-19T06:15:00;1098.90;;;999.28;;
2362;SDS011;1192;51.664;7.626;2022-07-19T06:17:27;1112.20;;;999.90;;
2362;SDS011;1192;51.664;7.626;2022-07-19T06:19:53;1105.82;;;999.90;;
2362;SDS011;1192;51.664;7.626;2022-07-19T06:22:20;1106.93;;;999.90;;
2362;SDS011;1192;51.664;7.626;2022-07-19T06:24:47;1106.10;;;999.90;;
2362;SDS011;1192;51.664;7.626;2022-07-19T06:27:14;1114.47;;;999.90;;
2362;SDS011;1192;51.664;7.626;2022-07-19T06:29:40;1107.40;;;999.90;;
2362;SDS011;1192;51.664;7.626;2022-07-19T06:32:08;1111.90;;;999.90;;
2362;SDS011;1192;51.664;7.626;2022-07-19T06:34:35;1104.27;;;999.90;;
2362;SDS011;1192;51.664;7.626;2022-07-19T06:37:02;1121.13;;;999.90;;
2362;SDS011;1192;51.664;7.626;2022-07-19T06:39:28;1139.60;;;999.90;;
2362;SDS011;1192;51.664;7.626;2022-07-19T06:41:55;1126.10;;;999.90;;
2362;SDS011;1192;51.664;7.626;2022-07-19T06:44:22;1130.87;;;999.90;;
2362;SDS011;1192;51.664;7.626;2022-07-19T06:46:49;1136.37;;;999.90;;
2362;SDS011;1192;51.664;7.626;2022-07-19T06:49:17;1146.80;;;999.90;;
2362;SDS011;1192;51.664;7.626;2022-07-19T06:51:43;1129.27;;;999.90;;
2362;SDS011;1192;51.664;7.626;2022-07-19T06:54:10;1151.87;;;999.90;;
2362;SDS011;1192;51.664;7.626;2022-07-19T06:56:37;1157.67;;;999.90;;
2362;SDS011;1192;51.664;7.626;2022-07-19T06:59:04;1145.67;;;999.90;;
2362;SDS011;1192;51.664;7.626;2022-07-19T07:01:30;1161.80;;;999.90;;
2362;SDS011;1192;51.664;7.626;2022-07-19T07:03:57;1147.87;;;999.90;;
2362;SDS011;1192;51.664;7.626;2022-07-19T07:06:25;1164.17;;;999.90;;
2362;SDS011;1192;51.664;7.626;2022-07-19T07:08:52;1163.80;;;999.90;;
2362;SDS011;1192;51.664;7.626;2022-07-19T07:11:19;1159.17;;;999.90;;
2362;SDS011;1192;51.664;7.626;2022-07-19T07:13:45;1161.77;;;999.90;;
2362;SDS011;1192;51.664;7.626;2022-07-19T07:16:12;1178.57;;;999.90;;
2362;SDS011;1192;51.664;7.626;2022-07-19T07:18:39;1181.40;;;999.90;;
2362;SDS011;1192;51.664;7.626;2022-07-19T07:21:05;1174.40;;;999.90;;
2362;SDS011;1192;51.664;7.626;2022-07-19T07:23:33;1163.93;;;999.90;;
2362;SDS011;1192;51.664;7.626;2022-07-19T07:26:03;1185.20;;;999.90;;
2362;SDS011;1192;51.664;7.626;2022-07-19T07:28:29;1172.67;;;999.90;;
2362;SDS011;1192;51.664;7.626;2022-07-19T07:30:56;1188.90;;;999.90;;
2362;SDS011;1192;51.664;7.626;2022-07-19T07:33:23;1196.50;;;999.90;;
2362;SDS011;1192;51.664;7.626;2022-07-19T07:35:49;1196.67;;;999.90;;
2362;SDS011;1192;51.664;7.626;2022-07-19T07:38:16;1200.87;;;999.90;;
2362;SDS011;1192;51.664;7.626;2022-07-19T07:40:44;1206.40;;;999.90;;
2362;SDS011;1192;51.664;7.626;2022-07-19T07:43:11;1200.60;;;999.90;;
2362;SDS011;1192;51.664;7.626;2022-07-19T07:45:38;1200.20;;;999.90;;
2362;SDS011;1192;51.664;7.626;2022-07-19T07:48:05;1194.47;;;999.90;;
2362;SDS011;1192;51.664;7.626;2022-07-19T07:50:32;1199.07;;;999.90;;
2362;SDS011;1192;51.664;7.626;2022-07-19T07:52:58;1205.17;;;999.90;;
2362;SDS011;1192;51.664;7.626;2022-07-19T07:55:25;1218.93;;;999.90;;
2362;SDS011;1192;51.664;7.626;2022-07-19T07:57:53;1205.63;;;999.90;;
2362;SDS011;1192;51.664;7.626;2022-07-19T08:00:20;1219.73;;;999.90;;
2362;SDS011;1192;51.664;7.626;2022-07-19T08:02:47;1216.43;;;999.90;;
2362;SDS011;1192;51.664;7.626;2022-07-19T08:05:15;1215.63;;;999.90;;
2362;SDS011;1192;51.664;7.626;2022-07-19T08:07:41;1225.70;;;999.90;;
2362;SDS011;1192;51.664;7.626;2022-07-19T08:10:08;1217.07;;;999.90;;
2362;SDS011;1192;51.664;7.626;2022-07-19T08:12:35;1225.03;;;999.90;;
2362;SDS011;1192;51.664;7.626;2022-07-19T08:15:04;1216.97;;;999.90;;
2362;SDS011;1192;51.664;7.626;2022-07-19T08:17:32;1208.20;;;999.90;;
2362;SDS011;1192;51.664;7.626;2022-07-19T08:19:59;1224.10;;;999.90;;
2362;SDS011;1192;51.664;7.626;2022-07-19T08:22:26;1227.87;;;999.90;;
2362;SDS011;1192;51.664;7.626;2022-07-19T08:24:54;1215.03;;;999.90;;
2362;SDS011;1192;51.664;7.626;2022-07-19T08:27:21;1211.40;;;999.90;;
2362;SDS011;1192;51.664;7.626;2022-07-19T08:29:48;1210.07;;;999.90;;
2362;SDS011;1192;51.664;7.626;2022-07-19T08:32:16;1219.00;;;999.90;;
2362;SDS011;1192;51.664;7.626;2022-07-19T08:34:43;1227.50;;;999.90;;
2362;SDS011;1192;51.664;7.626;2022-07-19T08:37:09;1220.90;;;999.90;;
2362;SDS011;1192;51.664;7.626;2022-07-19T08:39:36;1223.13;;;999.90;;
2362;SDS011;1192;51.664;7.626;2022-07-19T08:42:03;1229.03;;;999.90;;
2362;SDS011;1192;51.664;7.626;2022-07-19T08:44:30;1233.20;;;999.90;;
2362;SDS011;1192;51.664;7.626;2022-07-19T08:47:04;1228.03;;;999.90;;
2362;SDS011;1192;51.664;7.626;2022-07-19T08:49:32;1223.90;;;999.90;;
2362;SDS011;1192;51.664;7.626;2022-07-19T08:51:59;1236.80;;;999.90;;
2362;SDS011;1192;51.664;7.626;2022-07-19T08:54:27;1226.63;;;999.90;;
2362;SDS011;1192;51.664;7.626;2022-07-19T08:56:54;1225.67;;;999.90;;
2362;SDS011;1192;51.664;7.626;2022-07-19T08:59:38;1239.37;;;999.90;;
2362;SDS011;1192;51.664;7.626;2022-07-19T09:02:06;1225.83;;;999.90;;
2362;SDS011;1192;51.664;7.626;2022-07-19T09:04:34;1224.97;;;999.90;;
2362;SDS011;1192;51.664;7.626;2022-07-19T09:07:01;1237.87;;;999.90;;
2362;SDS011;1192;51.664;7.626;2022-07-19T09:09:29;1247.57;;;999.90;;
2362;SDS011;1192;51.664;7.626;2022-07-19T09:11:57;1231.43;;;999.90;;
2362;SDS011;1192;51.664;7.626;2022-07-19T09:14:25;1231.40;;;999.90;;
2362;SDS011;1192;51.664;7.626;2022-07-19T09:16:54;1237.33;;;999.90;;
2362;SDS011;1192;51.664;7.626;2022-07-19T09:19:26;1234.37;;;999.90;;
2362;SDS011;1192;51.664;7.626;2022-07-19T09:21:56;1240.33;;;999.90;;
2362;SDS011;1192;51.664;7.626;2022-07-19T09:24:26;1241.33;;;999.90;;
2362;SDS011;1192;51.664;7.626;2022-07-19T09:26:55;1246.30;;;999.90;;
2362;SDS011;1192;51.664;7.626;2022-07-19T09:29:24;1245.13;;;999.90;;
2362;SDS011;1192;51.664;7.626;2022-07-19T09:31:59;1237.73;;;999.90;;
2362;SDS011;1192;51.664;7.626;2022-07-19T09:34:35;1252.17;;;999.90;;
2362;SDS011;1192;51.664;7.626;2022-07-19T09:37:11;1255.30;;;999.90;;
2362;SDS011;1192;51.664;7.626;2022-07-19T09:39:40;1253.33;;;999.90;;
2362;SDS011;1192;51.664;7.626;2022-07-19T09:42:10;1243.83;;;999.90;;
2362;SDS011;1192;51.664;7.626;2022-07-19T09:44:37;1247.73;;;999.90;;
2362;SDS011;1192;51.664;7.626;2022-07-19T09:47:04;1242.20;;;999.90;;
2362;SDS011;1192;51.664;7.626;2022-07-19T09:49:31;1241.77;;;999.90;;
2362;SDS011;1192;51.664;7.626;2022-07-19T09:51:57;1236.57;;;999.90;;
2362;SDS011;1192;51.664;7.626;2022-07-19T09:54:28;1233.17;;;999.90;;
2362;SDS011;1192;51.664;7.626;2022-07-19T09:56:56;1246.47;;;999.90;;
2362;SDS011;1192;51.664;7.626;2022-07-19T09:59:24;1238.30;;;999.90;;
2362;SDS011;1192;51.664;7.626;2022-07-19T10:01:53;1239.13;;;999.90;;
2362;SDS011;1192;51.664;7.626;2022-07-19T10:04:21;1258.63;;;999.90;;
2362;SDS011;1192;51.664;7.626;2022-07-19T10:06:50;1254.40;;;999.90;;
2362;SDS011;1192;51.664;7.626;2022-07-19T10:09:18;1247.20;;;999.90;;
2362;SDS011;1192;51.664;7.626;2022-07-19T10:11:48;1244.53;;;999.90;;
2362;SDS011;1192;51.664;7.626;2022-07-19T10:14:16;1256.27;;;999.90;;
2362;SDS011;1192;51.664;7.626;2022-07-19T10:16:54;1240.33;;;999.90;;
2362;SDS011;1192;51.664;7.626;2022-07-19T10:19:38;1267.50;;;999.90;;
2362;SDS011;1192;51.664;7.626;2022-07-19T10:22:09;1252.00;;;999.90;;
2362;SDS011;1192;51.664;7.626;2022-07-19T10:24:43;1258.53;;;999.90;;
2362;SDS011;1192;51.664;7.626;2022-07-19T10:27:16;1256.30;;;999.90;;
2362;SDS011;1192;51.664;7.626;2022-07-19T10:29:45;1253.23;;;999.90;;
2362;SDS011;1192;51.664;7.626;2022-07-19T10:32:13;1247.83;;;999.90;;
2362;SDS011;1192;51.664;7.626;2022-07-19T10:34:40;1245.23;;;999.90;;
2362;SDS011;1192;51.664;7.626;2022-07-19T10:37:11;1245.93;;;999.90;;
2362;SDS011;1192;51.664;7.626;2022-07-19T10:39:38;1236.07;;;999.90;;
2362;SDS011;1192;51.664;7.626;2022-07-19T10:42:12;1235.10;;;999.90;;
2362;SDS011;1192;51.664;7.626;2022-07-19T10:50:51;1223.63;;;999.90;;
2362;SDS011;1192;51.664;7.626;2022-07-19T10:56:21;1232.30;;;999.90;;
2362;SDS011;1192;51.664;7.626;2022-07-19T10:58:50;1229.67;;;999.90;;
2362;SDS011;1192;51.664;7.626;2022-07-19T11:01:19;1230.67;;;999.90;;
2362;SDS011;1192;51.664;7.626;2022-07-19T11:03:48;1219.57;;;999.90;;
2362;SDS011;1192;51.664;7.626;2022-07-19T11:06:20;1226.30;;;999.90;;
2362;SDS011;1192;51.664;7.626;2022-07-19T11:08:51;1220.60;;;999.90;;
2362;SDS011;1192;51.664;7.626;2022-07-19T11:11:19;1238.73;;;999.90;;
2362;SDS011;1192;51.664;7.626;2022-07-19T11:13:47;1238.07;;;999.90;;
2362;SDS011;1192;51.664;7.626;2022-07-19T11:16:15;1224.23;;;999.90;;
2362;SDS011;1192;51.664;7.626;2022-07-19T11:18:43;1225.57;;;999.90;;
2362;SDS011;1192;51.664;7.626;2022-07-19T11:21:11;1238.27;;;999.90;;
2362;SDS011;1192;51.664;7.626;2022-07-19T11:23:39;1237.50;;;999.90;;
2362;SDS011;1192;51.664;7.626;2022-07-19T11:26:07;1239.73;;;999.90;;
2362;SDS011;1192;51.664;7.626;2022-07-19T11:28:35;1230.70;;;999.90;;
2362;SDS011;1192;51.664;7.626;2022-07-19T11:31:10;1238.83;;;999.90;;
2362;SDS011;1192;51.664;7.626;2022-07-19T11:33:37;1229.30;;;999.90;;
2362;SDS011;1192;51.664;7.626;2022-07-19T11:36:06;1223.83;;;999.90;;
2362;SDS011;1192;51.664;7.626;2022-07-19T11:38:34;1221.83;;;999.90;;
2362;SDS011;1192;51.664;7.626;2022-07-19T11:41:11;1213.80;;;999.90;;
2362;SDS011;1192;51.664;7.626;2022-07-19T11:43:39;1224.63;;;999.90;;
2362;SDS011;1192;51.664;7.626;2022-07-19T11:46:06;1224.63;;;999.90;;
2362;SDS011;1192;51.664;7.626;2022-07-19T11:48:32;1227.47;;;999.90;;
2362;SDS011;1192;51.664;7.626;2022-07-19T11:51:00;1232.00;;;999.90;;
2362;SDS011;1192;51.664;7.626;2022-07-19T11:53:30;1231.57;;;999.90;;
2362;SDS011;1192;51.664;7.626;2022-07-19T11:55:57;1227.87;;;999.90;;
2362;SDS011;1192;51.664;7.626;2022-07-19T11:58:24;1222.33;;;999.90;;
2362;SDS011;1192;51.664;7.626;2022-07-19T12:00:51;1234.53;;;999.90;;
2362;SDS011;1192;51.664;7.626;2022-07-19T12:03:18;1226.00;;;999.90;;
2362;SDS011;1192;51.664;7.626;2022-07-19T12:05:53;1234.07;;;999.90;;
2362;SDS011;1192;51.664;7.626;2022-07-19T12:08:30;1232.73;;;999.90;;
2362;SDS011;1192;51.664;7.626;2022-07-19T12:10:59;1236.30;;;999.90;;
2362;SDS011;1192;51.664;7.626;2022-07-19T12:13:28;1237.00;;;999.90;;
2362;SDS011;1192;51.664;7.626;2022-07-19T12:15:56;1222.73;;;999.90;;
2362;SDS011;1192;51.664;7.626;2022-07-19T12:18:41;1245.00;;;999.90;;
2362;SDS011;1192;51.664;7.626;2022-07-19T12:27:02;1225.00;;;999.90;;
2362;SDS011;1192;51.664;7.626;2022-07-19T12:29:32;1236.20;;;999.90;;
2362;SDS011;1192;51.664;7.626;2022-07-19T12:32:01;1237.00;;;999.90;;
2362;SDS011;1192;51.664;7.626;2022-07-19T12:34:40;1225.30;;;999.90;;
2362;SDS011;1192;51.664;7.626;2022-07-19T12:37:18;1235.13;;;999.90;;
2362;SDS011;1192;51.664;7.626;2022-07-19T12:39:56;1223.77;;;999.90;;
2362;SDS011;1192;51.664;7.626;2022-07-19T12:42:25;1225.77;;;999.90;;
2362;SDS011;1192;51.664;7.626;2022-07-19T12:44:52;1234.17;;;999.90;;
2362;SDS011;1192;51.664;7.626;2022-07-19T12:47:19;1224.77;;;999.90;;
2362;SDS011;1192;51.664;7.626;2022-07-19T12:49:47;1235.87;;;999.90;;
2362;SDS011;1192;51.664;7.626;2022-07-19T12:52:14;1218.27;;;999.90;;
2362;SDS011;1192;51.664;7.626;2022-07-19T12:54:41;1227.77;;;999.90;;
2362;SDS011;1192;51.664;7.626;2022-07-19T12:57:09;1223.00;;;999.90;;
2362;SDS011;1192;51.664;7.626;2022-07-19T12:59:36;1224.63;;;999.90;;
2362;SDS011;1192;51.664;7.626;2022-07-19T13:02:05;1235.43;;;999.90;;
2362;SDS011;1192;51.664;7.626;2022-07-19T13:04:33;1236.50;;;999.90;;
2362;SDS011;1192;51.664;7.626;2022-07-19T13:06:59;1219.27;;;999.90;;
2362;SDS011;1192;51.664;7.626;2022-07-19T13:09:26;1229.00;;;999.90;;
2362;SDS011;1192;51.664;7.626;2022-07-19T13:11:53;1231.77;;;999.90;;
2362;SDS011;1192;51.664;7.626;2022-07-19T13:14:21;1222.00;;;999.90;;
2362;SDS011;1192;51.664;7.626;2022-07-19T13:16:49;1223.27;;;999.90;;
2362;SDS011;1192;51.664;7.626;2022-07-19T13:19:15;1225.70;;;999.90;;
2362;SDS011;1192;51.664;7.626;2022-07-19T13:21:42;1226.37;;;999.90;;
2362;SDS011;1192;51.664;7.626;2022-07-19T13:24:09;1229.43;;;999.90;;
2362;SDS011;1192;51.664;7.626;2022-07-19T13:26:37;1227.87;;;999.90;;
2362;SDS011;1192;51.664;7.626;2022-07-19T13:29:03;1232.63;;;999.90;;
2362;SDS011;1192;51.664;7.626;2022-07-19T13:31:32;1211.40;;;999.90;;
2362;SDS011;1192;51.664;7.626;2022-07-19T13:33:58;1222.40;;;999.90;;
2362;SDS011;1192;51.664;7.626;2022-07-19T13:36:25;1230.23;;;999.90;;
2362;SDS011;1192;51.664;7.626;2022-07-19T13:38:52;1228.70;;;999.90;;
2362;SDS011;1192;51.664;7.626;2022-07-19T13:41:19;1233.93;;;999.90;;
2362;SDS011;1192;51.664;7.626;2022-07-19T13:43:46;1228.33;;;999.90;;
2362;SDS011;1192;51.664;7.626;2022-07-19T13:46:13;1224.43;;;999.90;;
2362;SDS011;1192;51.664;7.626;2022-07-19T13:48:41;1235.63;;;999.90;;
2362;SDS011;1192;51.664;7.626;2022-07-19T13:51:08;1228.63;;;999.90;;
2362;SDS011;1192;51.664;7.626;2022-07-19T13:53:35;1230.90;;;999.90;;
2362;SDS011;1192;51.664;7.626;2022-07-19T13:56:02;1228.67;;;999.90;;
2362;SDS011;1192;51.664;7.626;2022-07-19T13:58:29;1226.30;;;999.90;;
2362;SDS011;1192;51.664;7.626;2022-07-19T14:00:56;1236.70;;;999.90;;
2362;SDS011;1192;51.664;7.626;2022-07-19T14:03:23;1232.30;;;999.90;;
2362;SDS011;1192;51.664;7.626;2022-07-19T14:05:51;1234.50;;;999.90;;
2362;SDS011;1192;51.664;7.626;2022-07-19T14:08:18;1223.93;;;999.90;;
2362;SDS011;1192;51.664;7.626;2022-07-19T14:10:45;1238.93;;;999.90;;
2362;SDS011;1192;51.664;7.626;2022-07-19T14:13:12;1236.87;;;999.90;;
2362;SDS011;1192;51.664;7.626;2022-07-19T14:15:39;1235.57;;;999.90;;
2362;SDS011;1192;51.664;7.626;2022-07-19T14:18:08;1232.93;;;999.90;;
2362;SDS011;1192;51.664;7.626;2022-07-19T14:20:35;1239.50;;;999.90;;
2362;SDS011;1192;51.664;7.626;2022-07-19T14:23:03;1236.97;;;999.90;;
2362;SDS011;1192;51.664;7.626;2022-07-19T14:25:30;1231.30;;;999.90;;
2362;SDS011;1192;51.664;7.626;2022-07-19T14:27:57;1232.03;;;999.90;;